Time;durP1;ratioP1;P1;durP2;ratioP2;P2;SDS_P1;SDS_P2;PMS_P1;PMS_P2;Temp;Humidity;BMP_temperature;BMP_pressure;BME280_temperature;BME280_humidity;BME280_pressure;Samples;Min_cycle;Max_cycle;Signal;HPM_P1;HPM_P2
2021/12/26 00:01:45;;;;;;;;;;;6.30;99.90;;;;;;5019117;28;19932;-80
2021/12/26 00:04:16;;;;;;;;;;;6.30;99.90;;;;;;5032371;28;19930;-77
2021/12/26 00:06:44;;;;;;;;;;;6.30;99.90;;;;;;5023149;28;19925;-77
2021/12/26 00:09:13;;;;;;;;;;;6.30;99.90;;;;;;5026161;28;19930;-76
2021/12/26 00:11:40;;;;;;;;;;;6.30;99.90;;;;;;5014375;28;19929;-77
2021/12/26 00:14:08;;;;;;;;;;;6.30;99.90;;;;;;4988210;28;20287;-79
2021/12/26 00:16:36;;;;;;;;;;;7.10;99.90;;;;;;5005547;28;20274;-77
2021/12/26 00:19:04;;;;;;;;;;;6.20;99.90;;;;;;5009325;28;19925;-77
2021/12/26 00:21:35;;;;;;;;;;;6.20;99.90;;;;;;5005348;28;19934;-78
2021/12/26 00:24:03;;;;;;;;;;;6.20;99.90;;;;;;4988274;28;19937;-78
2021/12/26 00:26:32;;;;;;;;;;;6.20;99.90;;;;;;5002941;28;19934;-77
2021/12/26 00:29:00;;;;;;;;;;;6.20;99.90;;;;;;5005008;28;19926;-78
2021/12/26 00:31:28;;;;;;;;;;;6.20;99.90;;;;;;5015665;28;19925;-79
2021/12/26 00:33:56;;;;;;;;;;;6.20;99.90;;;;;;5009124;28;19940;-78
2021/12/26 00:36:24;;;;;;;;;;;6.20;99.90;;;;;;5007000;28;19932;-79
2021/12/26 00:38:52;;;;;;;;;;;6.20;99.90;;;;;;5006725;28;19936;-78
2021/12/26 00:41:20;;;;;;;;;;;6.40;99.90;;;;;;5000825;28;19926;-78
2021/12/26 00:43:47;;;;;;;;;;;6.10;99.90;;;;;;5005878;28;19941;-78
2021/12/26 00:46:16;;;;;;;;;;;6.20;99.90;;;;;;4988275;28;19943;-78
2021/12/26 00:48:44;;;;;;;;;;;6.20;99.90;;;;;;5005592;28;19927;-78
2021/12/26 00:51:13;;;;;;;;;;;6.10;99.90;;;;;;5005090;28;19929;-78
2021/12/26 00:53:40;;;;;;;;;;;6.20;99.90;;;;;;5022840;28;19948;-77
2021/12/26 00:56:08;;;;;;;;;;;6.30;99.90;;;;;;4991273;28;19926;-78
2021/12/26 00:58:35;;;;;;;;;;;6.20;99.90;;;;;;5021555;28;19933;-78
2021/12/26 01:01:03;;;;;;;;;;;6.20;99.90;;;;;;5022806;28;19933;-78
2021/12/26 01:03:31;;;;;;;;;;;6.10;99.90;;;;;;5017885;28;19929;-78
2021/12/26 01:05:59;;;;;;;;;;;6.10;99.90;;;;;;4968784;28;19932;-78
2021/12/26 01:08:30;;;;;;;;;;;6.10;99.90;;;;;;4985911;28;19933;-81
2021/12/26 01:11:07;;;;;;;;;;;6.20;99.90;;;;;;4995116;28;19926;-77
2021/12/26 01:13:39;;;;;;;;;;;6.10;99.90;;;;;;5004364;28;19926;-79
2021/12/26 01:16:19;;;;;;;;;;;6.20;99.90;;;;;;5006749;28;19936;-78
2021/12/26 01:18:50;;;;;;;;;;;6.20;99.90;;;;;;5006374;28;20417;-79
2021/12/26 01:21:21;;;;;;;;;;;6.10;99.90;;;;;;4988884;28;20406;-77
2021/12/26 01:23:57;;;;;;;;;;;6.10;99.90;;;;;;5006261;28;19929;-77
2021/12/26 01:26:25;;;;;;;;;;;6.10;99.90;;;;;;4997045;28;19933;-76
2021/12/26 01:28:53;;;;;;;;;;;6.10;99.90;;;;;;5006499;28;19926;-77
2021/12/26 01:31:21;;;;;;;;;;;6.10;99.90;;;;;;5020459;28;19925;-77
2021/12/26 01:33:57;;;;;;;;;;;6.20;99.90;;;;;;5005802;28;19930;-76
2021/12/26 01:36:51;;;;;;;;;;;6.10;99.90;;;;;;4993489;28;19929;-77
2021/12/26 01:39:36;;;;;;;;;;;6.10;99.90;;;;;;4970770;28;19930;-78
2021/12/26 01:42:29;;;;;;;;;;;6.10;99.90;;;;;;4986647;28;19929;-77
2021/12/26 01:45:16;;;;;;;;;;;6.40;99.90;;;;;;5024718;28;19929;-78
2021/12/26 01:48:00;;;;;;;;;;;6.10;99.90;;;;;;5008613;28;19939;-78
2021/12/26 01:50:30;;;;;;;;;;;6.10;99.90;;;;;;5005600;28;19925;-78
2021/12/26 01:52:58;;;;;;;;;;;6.50;99.90;;;;;;5004084;28;19929;-78
2021/12/26 01:55:38;;;;;;;;;;;6.10;99.90;;;;;;5005326;28;19930;-78
2021/12/26 01:58:16;;;;;;;;;;;6.10;99.90;;;;;;5020309;28;19937;-79
2021/12/26 02:00:49;;;;;;;;;;;6.10;99.90;;;;;;5004451;28;19932;-78
2021/12/26 02:03:18;;;;;;;;;;;6.00;99.90;;;;;;4971333;28;19945;-78
2021/12/26 02:05:45;;;;;;;;;;;6.00;99.90;;;;;;4987384;28;19937;-77
2021/12/26 02:08:39;;;;;;;;;;;6.00;99.90;;;;;;4990443;28;20339;-81
2021/12/26 02:11:08;;;;;;;;;;;6.00;99.90;;;;;;5008127;28;21418;-80
2021/12/26 02:13:37;;;;;;;;;;;6.00;99.90;;;;;;4972007;28;20375;-78
2021/12/26 02:16:08;;;;;;;;;;;6.00;99.90;;;;;;4987713;28;19941;-77
2021/12/26 02:18:36;;;;;;;;;;;6.00;99.90;;;;;;4987333;28;19941;-78
2021/12/26 02:24:14;;;;;;;;;;;6.00;99.90;;;;;;5024426;28;20024;-77
2021/12/26 02:29:30;;;;;;;;;;;6.00;99.90;;;;;;5011075;28;19925;-78
2021/12/26 02:31:59;;;;;;;;;;;6.00;99.90;;;;;;5004641;28;19930;-79
2021/12/26 02:34:28;;;;;;;;;;;5.90;99.90;;;;;;4985193;28;19941;-78
2021/12/26 02:36:55;;;;;;;;;;;6.00;99.90;;;;;;5020042;28;20220;-78
2021/12/26 02:39:48;;;;;;;;;;;5.90;99.90;;;;;;4987636;28;19932;-78
2021/12/26 02:42:20;;;;;;;;;;;5.90;99.90;;;;;;4970699;28;19933;-78
2021/12/26 02:44:48;;;;;;;;;;;6.50;99.90;;;;;;5003825;28;20194;-78
2021/12/26 02:47:31;;;;;;;;;;;6.20;99.90;;;;;;5001921;28;20268;-79
2021/12/26 02:50:19;;;;;;;;;;;6.00;99.90;;;;;;5003205;28;19926;-79
2021/12/26 02:52:48;;;;;;;;;;;6.00;99.90;;;;;;4987781;28;19930;-78
2021/12/26 02:55:41;;;;;;;;;;;6.00;99.90;;;;;;5002927;28;19957;-77
2021/12/26 02:58:09;;;;;;;;;;;6.00;99.90;;;;;;5005723;28;20295;-77
2021/12/26 03:00:40;;;;;;;;;;;6.00;99.90;;;;;;5021790;28;19933;-79
2021/12/26 03:03:09;;;;;;;;;;;6.00;99.90;;;;;;4988978;28;19929;-78
2021/12/26 03:05:39;;;;;;;;;;;5.90;99.90;;;;;;4989155;28;19945;-78
2021/12/26 03:08:07;;;;;;;;;;;6.00;99.90;;;;;;5005112;28;19933;-77
2021/12/26 03:10:35;;;;;;;;;;;5.90;99.90;;;;;;5005352;28;19992;-78
2021/12/26 03:13:04;;;;;;;;;;;6.00;99.90;;;;;;5001174;28;19941;-78
2021/12/26 03:15:58;;;;;;;;;;;5.90;99.90;;;;;;4990705;28;19926;-77
2021/12/26 03:18:40;;;;;;;;;;;6.00;99.90;;;;;;5000935;28;19933;-77
2021/12/26 03:21:07;;;;;;;;;;;6.00;99.90;;;;;;5002176;28;19941;-78
2021/12/26 03:23:35;;;;;;;;;;;6.00;99.90;;;;;;4997374;28;19926;-78
2021/12/26 03:26:04;;;;;;;;;;;6.00;99.90;;;;;;5004864;28;19932;-78
2021/12/26 03:28:32;;;;;;;;;;;6.00;99.90;;;;;;5004569;28;20462;-78
2021/12/26 03:31:02;;;;;;;;;;;6.00;99.90;;;;;;5011386;28;19929;-78
2021/12/26 03:33:33;;;;;;;;;;;6.20;99.90;;;;;;5024447;28;19940;-79
2021/12/26 03:36:31;;;;;;;;;;;6.00;99.90;;;;;;5040314;28;20216;-77
2021/12/26 03:39:10;;;;;;;;;;;6.00;99.90;;;;;;4986332;28;19930;-78
2021/12/26 03:41:39;;;;;;;;;;;5.90;99.90;;;;;;5001096;28;19936;-78
2021/12/26 03:44:08;;;;;;;;;;;5.90;99.90;;;;;;5006015;28;19940;-78
2021/12/26 03:46:36;;;;;;;;;;;5.90;99.90;;;;;;5012013;28;19940;-78
2021/12/26 03:49:05;;;;;;;;;;;6.00;99.90;;;;;;5003274;28;19926;-78
2021/12/26 03:51:34;;;;;;;;;;;6.00;99.90;;;;;;5004088;28;19945;-77
2021/12/26 03:54:05;;;;;;;;;;;6.00;99.90;;;;;;5004566;28;19937;-77
2021/12/26 03:56:34;;;;;;;;;;;6.00;99.90;;;;;;4999487;28;19929;-77
2021/12/26 03:59:13;;;;;;;;;;;6.00;99.90;;;;;;5023499;28;19925;-77
2021/12/26 04:01:42;;;;;;;;;;;6.00;99.90;;;;;;4989494;28;19929;-77
2021/12/26 04:04:09;;;;;;;;;;;5.90;99.90;;;;;;5005262;28;19933;-78
2021/12/26 04:06:39;;;;;;;;;;;6.00;99.90;;;;;;5004091;28;19926;-79
2021/12/26 04:09:08;;;;;;;;;;;6.00;99.90;;;;;;5003629;28;19936;-78
2021/12/26 04:11:39;;;;;;;;;;;6.00;99.90;;;;;;4998495;28;19936;-77
2021/12/26 04:14:06;;;;;;;;;;;6.00;99.90;;;;;;4984205;28;20138;-78
2021/12/26 04:16:34;;;;;;;;;;;6.00;99.90;;;;;;4983868;28;19932;-81
2021/12/26 04:19:02;;;;;;;;;;;6.00;99.90;;;;;;4982855;28;19926;-79
2021/12/26 04:21:29;;;;;;;;;;;6.00;99.90;;;;;;4984064;28;20234;-78
2021/12/26 04:24:01;;;;;;;;;;;6.00;99.90;;;;;;4984477;28;19937;-78
2021/12/26 04:26:28;;;;;;;;;;;6.00;99.90;;;;;;5005380;28;20161;-80
2021/12/26 04:28:56;;;;;;;;;;;6.00;99.90;;;;;;5022424;28;19929;-76
2021/12/26 04:31:24;;;;;;;;;;;6.00;99.90;;;;;;5000538;28;19926;-77
2021/12/26 04:33:51;;;;;;;;;;;6.00;99.90;;;;;;4984113;28;19926;-76
2021/12/26 04:36:20;;;;;;;;;;;6.00;99.90;;;;;;4995092;28;19926;-77
2021/12/26 04:38:48;;;;;;;;;;;6.10;99.90;;;;;;4999629;28;19934;-77
2021/12/26 04:41:16;;;;;;;;;;;6.00;99.90;;;;;;4996372;28;19930;-76
2021/12/26 04:43:49;;;;;;;;;;;6.00;99.90;;;;;;5005046;28;19926;-76
2021/12/26 04:46:28;;;;;;;;;;;6.00;99.90;;;;;;5003036;28;19936;-77
2021/12/26 04:49:16;;;;;;;;;;;6.00;99.90;;;;;;4998721;28;19930;-76
2021/12/26 04:51:45;;;;;;;;;;;6.00;99.90;;;;;;5003133;28;19953;-77
2021/12/26 04:54:13;;;;;;;;;;;6.00;99.90;;;;;;4987059;28;20311;-77
2021/12/26 04:57:09;;;;;;;;;;;6.10;99.90;;;;;;5002581;28;19930;-76
2021/12/26 04:59:39;;;;;;;;;;;6.10;99.90;;;;;;5003865;28;19926;-76
2021/12/26 05:02:09;;;;;;;;;;;6.10;99.90;;;;;;5003810;28;19942;-76
2021/12/26 05:04:40;;;;;;;;;;;6.10;99.90;;;;;;5004013;28;19933;-77
2021/12/26 05:07:08;;;;;;;;;;;6.10;99.90;;;;;;5003175;28;19933;-77
2021/12/26 05:09:36;;;;;;;;;;;6.10;99.90;;;;;;5002719;28;19930;-76
2021/12/26 05:12:04;;;;;;;;;;;6.10;99.90;;;;;;4986242;28;19936;-77
2021/12/26 05:14:31;;;;;;;;;;;6.10;99.90;;;;;;5002895;28;19930;-78
2021/12/26 05:16:59;;;;;;;;;;;6.20;99.90;;;;;;5001688;28;19926;-77
2021/12/26 05:19:27;;;;;;;;;;;6.20;99.90;;;;;;5001544;28;20177;-77
2021/12/26 05:21:54;;;;;;;;;;;6.20;99.90;;;;;;5002193;28;19937;-77
2021/12/26 05:24:23;;;;;;;;;;;6.60;99.90;;;;;;5002520;28;19933;-77
2021/12/26 05:26:51;;;;;;;;;;;6.20;99.90;;;;;;5003127;28;19926;-79
2021/12/26 05:29:18;;;;;;;;;;;6.20;99.90;;;;;;4982782;28;19926;-77
2021/12/26 05:31:46;;;;;;;;;;;6.30;99.90;;;;;;4983126;28;19930;-78
2021/12/26 05:34:13;;;;;;;;;;;6.20;99.90;;;;;;4999492;28;20445;-77
2021/12/26 05:36:42;;;;;;;;;;;6.20;99.90;;;;;;4999403;28;19957;-78
2021/12/26 05:39:09;;;;;;;;;;;6.20;99.90;;;;;;4983883;28;19926;-78
2021/12/26 05:41:41;;;;;;;;;;;6.30;99.90;;;;;;4998448;28;19930;-77
2021/12/26 05:44:28;;;;;;;;;;;6.30;99.90;;;;;;4999963;28;19925;-77
2021/12/26 05:46:57;;;;;;;;;;;6.30;99.90;;;;;;4999308;28;19951;-76
2021/12/26 05:49:42;;;;;;;;;;;6.30;99.90;;;;;;4967013;28;19926;-77
2021/12/26 05:52:14;;;;;;;;;;;6.30;99.90;;;;;;4980930;28;19926;-77
2021/12/26 05:54:46;;;;;;;;;;;6.30;99.90;;;;;;4996723;28;19930;-77
2021/12/26 05:57:15;;;;;;;;;;;6.30;99.90;;;;;;4981320;28;19930;-77
2021/12/26 05:59:43;;;;;;;;;;;6.40;99.90;;;;;;4982443;28;19926;-77
2021/12/26 06:02:18;;;;;;;;;;;6.40;99.90;;;;;;4997973;28;19930;-77
2021/12/26 06:04:47;;;;;;;;;;;6.40;99.90;;;;;;4981684;28;19930;-77
2021/12/26 06:07:15;;;;;;;;;;;6.40;99.90;;;;;;4964975;28;19930;-77
2021/12/26 06:09:44;;;;;;;;;;;6.40;99.90;;;;;;4979897;28;19926;-78
2021/12/26 06:12:11;;;;;;;;;;;6.40;99.90;;;;;;4997433;28;19926;-78
2021/12/26 06:14:39;;;;;;;;;;;6.40;99.90;;;;;;4981251;28;19926;-77
2021/12/26 06:17:08;;;;;;;;;;;6.50;99.90;;;;;;4997911;28;19930;-78
2021/12/26 06:19:55;;;;;;;;;;;6.50;99.90;;;;;;4994839;28;20659;-77
2021/12/26 06:22:34;;;;;;;;;;;6.50;99.90;;;;;;4981796;28;19930;-77
2021/12/26 06:25:21;;;;;;;;;;;6.50;99.90;;;;;;4982252;28;19926;-78
2021/12/26 06:27:55;;;;;;;;;;;6.50;99.90;;;;;;4967022;28;19926;-77
2021/12/26 06:30:41;;;;;;;;;;;6.50;99.90;;;;;;4991726;28;19926;-77
2021/12/26 06:33:27;;;;;;;;;;;6.50;99.90;;;;;;5006427;28;20518;-78
2021/12/26 06:36:14;;;;;;;;;;;6.50;99.90;;;;;;5005954;28;19981;-80
2021/12/26 06:39:01;;;;;;;;;;;6.50;99.90;;;;;;5009654;28;19936;-78
2021/12/26 06:41:47;;;;;;;;;;;6.50;99.90;;;;;;4997555;28;19933;-80
2021/12/26 06:44:23;;;;;;;;;;;6.60;99.90;;;;;;5003649;28;20132;-80
2021/12/26 06:47:06;;;;;;;;;;;6.60;99.90;;;;;;5004915;28;19936;-76
2021/12/26 06:49:37;;;;;;;;;;;6.60;99.90;;;;;;4986805;28;19937;-77
2021/12/26 06:52:05;;;;;;;;;;;6.60;99.90;;;;;;5003708;28;19925;-78
2021/12/26 06:54:33;;;;;;;;;;;6.60;99.90;;;;;;5006287;28;19930;-76
2021/12/26 06:57:00;;;;;;;;;;;6.60;99.90;;;;;;5024847;28;19925;-77
2021/12/26 06:59:29;;;;;;;;;;;6.60;99.90;;;;;;5022914;28;20278;-77
2021/12/26 07:01:57;;;;;;;;;;;6.60;99.90;;;;;;5006830;28;19925;-77
2021/12/26 07:04:41;;;;;;;;;;;6.70;99.90;;;;;;5006612;28;19930;-77
2021/12/26 07:07:09;;;;;;;;;;;6.70;99.90;;;;;;5022589;28;19933;-77
2021/12/26 07:09:37;;;;;;;;;;;6.70;99.90;;;;;;5006831;28;20184;-77
2021/12/26 07:12:05;;;;;;;;;;;6.70;99.90;;;;;;4990732;28;19925;-78
2021/12/26 07:14:40;;;;;;;;;;;6.70;99.90;;;;;;4991006;28;19925;-78
2021/12/26 07:17:10;;;;;;;;;;;6.70;99.90;;;;;;5022749;28;19929;-78
2021/12/26 07:19:41;;;;;;;;;;;6.80;99.90;;;;;;5022193;28;19929;-76
2021/12/26 07:22:22;;;;;;;;;;;6.80;99.90;;;;;;5020860;28;19925;-78
2021/12/26 07:24:49;;;;;;;;;;;6.70;99.90;;;;;;5022830;28;20158;-77
2021/12/26 07:27:17;;;;;;;;;;;6.80;99.90;;;;;;5023946;28;19933;-79
2021/12/26 07:30:05;;;;;;;;;;;6.80;99.90;;;;;;5024377;28;20076;-80
2021/12/26 07:32:35;;;;;;;;;;;6.80;99.90;;;;;;5014044;28;19933;-83
2021/12/26 07:35:03;;;;;;;;;;;6.80;99.90;;;;;;5022239;28;20320;-80
2021/12/26 07:37:31;;;;;;;;;;;6.90;99.90;;;;;;5022705;28;19929;-79
2021/12/26 07:39:59;;;;;;;;;;;6.90;99.90;;;;;;5021500;28;19929;-80
2021/12/26 07:42:28;;;;;;;;;;;6.90;99.90;;;;;;5002967;28;19932;-80
2021/12/26 07:45:21;;;;;;;;;;;6.90;99.90;;;;;;4987509;28;19961;-82
2021/12/26 07:47:53;;;;;;;;;;;6.90;99.90;;;;;;4987187;28;19926;-81
2021/12/26 07:50:21;;;;;;;;;;;6.90;99.90;;;;;;5016304;28;19929;-81
2021/12/26 07:53:11;;;;;;;;;;;6.90;99.90;;;;;;5022355;28;19926;-82
2021/12/26 07:55:57;;;;;;;;;;;7.00;99.90;;;;;;5022443;28;19936;-79
2021/12/26 07:58:43;;;;;;;;;;;7.00;99.90;;;;;;5022495;28;19925;-78
2021/12/26 08:01:29;;;;;;;;;;;7.00;99.90;;;;;;5033295;28;19940;-78
2021/12/26 08:04:19;;;;;;;;;;;7.10;99.90;;;;;;5014405;28;19937;-80
2021/12/26 08:07:22;;;;;;;;;;;7.50;99.90;;;;;;5002419;28;19932;-78
2021/12/26 08:09:50;;;;;;;;;;;7.10;99.90;;;;;;4987909;28;19926;-79
2021/12/26 08:12:18;;;;;;;;;;;7.00;99.90;;;;;;5020297;28;19932;-81
2021/12/26 08:14:46;;;;;;;;;;;7.00;99.90;;;;;;5025834;28;19929;-84
2021/12/26 08:17:40;;;;;;;;;;;7.10;99.90;;;;;;4993621;28;19925;-79
2021/12/26 08:20:11;;;;;;;;;;;7.10;99.90;;;;;;5011079;28;19925;-82
2021/12/26 08:22:43;;;;;;;;;;;7.10;99.90;;;;;;4979996;28;19930;-78
2021/12/26 08:25:12;;;;;;;;;;;7.10;99.90;;;;;;4988517;28;19942;-80
2021/12/26 08:27:40;;;;;;;;;;;7.20;99.90;;;;;;5004773;28;19952;-82
2021/12/26 08:30:08;;;;;;;;;;;7.20;99.90;;;;;;5015091;28;19926;-79
2021/12/26 08:32:39;;;;;;;;;;;7.30;99.90;;;;;;5016247;28;19925;-78
2021/12/26 08:35:08;;;;;;;;;;;7.30;99.90;;;;;;5001914;28;19944;-82
2021/12/26 08:37:37;;;;;;;;;;;7.30;99.90;;;;;;5001722;28;19930;-78
2021/12/26 08:40:05;;;;;;;;;;;7.30;99.90;;;;;;5014468;28;19933;-79
2021/12/26 08:42:33;;;;;;;;;;;7.30;99.90;;;;;;4996202;28;19929;-79
2021/12/26 08:45:01;;;;;;;;;;;7.30;99.90;;;;;;4988347;28;19925;-79
2021/12/26 08:47:29;;;;;;;;;;;7.40;99.90;;;;;;5003276;28;19936;-78
2021/12/26 08:49:57;;;;;;;;;;;7.40;99.90;;;;;;4989392;28;19926;-79
2021/12/26 08:52:24;;;;;;;;;;;7.40;99.90;;;;;;5019521;28;19933;-79
2021/12/26 08:54:52;;;;;;;;;;;7.40;99.90;;;;;;5015609;28;19937;-79
2021/12/26 08:57:19;;;;;;;;;;;7.40;99.90;;;;;;5020710;28;19934;-81
2021/12/26 08:59:47;;;;;;;;;;;7.40;99.90;;;;;;5018309;28;19941;-78
2021/12/26 09:02:15;;;;;;;;;;;7.50;99.90;;;;;;5000363;28;19926;-77
2021/12/26 09:04:43;;;;;;;;;;;7.50;99.90;;;;;;5019109;28;19926;-78
2021/12/26 09:07:10;;;;;;;;;;;7.50;99.90;;;;;;4985552;28;19926;-77
2021/12/26 09:09:38;;;;;;;;;;;7.50;99.90;;;;;;4988908;28;19936;-78
2021/12/26 09:12:06;;;;;;;;;;;7.60;99.90;;;;;;5024137;28;20187;-77
2021/12/26 09:14:34;;;;;;;;;;;7.60;99.90;;;;;;4986841;28;19929;-77
2021/12/26 09:17:02;;;;;;;;;;;7.60;99.90;;;;;;4988527;28;20383;-77
2021/12/26 09:19:30;;;;;;;;;;;7.60;99.90;;;;;;5020079;28;20248;-79
2021/12/26 09:22:03;;;;;;;;;;;7.60;99.90;;;;;;5004407;28;19929;-78
2021/12/26 09:24:30;;;;;;;;;;;7.60;99.90;;;;;;4987761;28;19926;-77
2021/12/26 09:26:58;;;;;;;;;;;7.60;99.90;;;;;;5020767;28;20012;-76
2021/12/26 09:29:26;;;;;;;;;;;7.60;99.90;;;;;;5022134;28;19933;-76
2021/12/26 09:31:56;;;;;;;;;;;7.60;99.90;;;;;;4997693;28;19933;-77
2021/12/26 09:34:24;;;;;;;;;;;7.60;99.90;;;;;;4984641;28;19929;-77
2021/12/26 09:36:51;;;;;;;;;;;7.60;99.90;;;;;;5002754;28;19936;-77
2021/12/26 09:39:19;;;;;;;;;;;7.60;99.90;;;;;;4998064;28;19933;-80
2021/12/26 09:41:47;;;;;;;;;;;7.60;99.90;;;;;;5002856;28;19938;-76
2021/12/26 09:44:19;;;;;;;;;;;7.60;99.90;;;;;;5000848;28;19926;-77
2021/12/26 09:46:47;;;;;;;;;;;7.60;99.90;;;;;;4984190;28;19930;-76
2021/12/26 09:49:15;;;;;;;;;;;7.60;99.90;;;;;;5000659;28;19937;-76
2021/12/26 09:51:42;;;;;;;;;;;7.60;99.90;;;;;;4999274;28;19933;-80
2021/12/26 09:54:11;;;;;;;;;;;7.60;99.90;;;;;;5000902;28;19926;-78
2021/12/26 09:56:40;;;;;;;;;;;7.60;99.90;;;;;;4999319;28;19945;-76
2021/12/26 09:59:13;;;;;;;;;;;7.70;99.90;;;;;;5002168;28;19926;-76
2021/12/26 10:01:43;;;;;;;;;;;7.60;99.90;;;;;;5009550;28;19925;-76
2021/12/26 10:04:25;;;;;;;;;;;7.70;99.90;;;;;;5008491;28;19925;-76
2021/12/26 10:07:17;;;;;;;;;;;7.70;99.90;;;;;;4985649;28;19941;-76
2021/12/26 10:09:47;;;;;;;;;;;7.70;99.90;;;;;;4985397;28;19925;-76
2021/12/26 10:12:16;;;;;;;;;;;7.70;99.90;;;;;;4993586;28;19926;-80
2021/12/26 10:14:48;;;;;;;;;;;7.80;99.90;;;;;;4994901;28;19930;-79
2021/12/26 10:17:23;;;;;;;;;;;7.80;99.90;;;;;;4995531;28;19932;-77
2021/12/26 10:19:53;;;;;;;;;;;7.80;99.90;;;;;;4983268;28;19936;-76
2021/12/26 10:22:25;;;;;;;;;;;7.90;99.90;;;;;;5000680;28;19926;-77
2021/12/26 10:24:55;;;;;;;;;;;7.90;99.90;;;;;;5003470;28;19926;-76
2021/12/26 10:27:50;;;;;;;;;;;7.90;99.90;;;;;;5001236;28;19937;-76
2021/12/26 10:30:22;;;;;;;;;;;8.00;99.90;;;;;;5002812;28;19932;-77
2021/12/26 10:32:56;;;;;;;;;;;8.00;99.90;;;;;;5021481;28;19925;-78
2021/12/26 10:35:24;;;;;;;;;;;8.30;99.90;;;;;;5013721;28;19925;-76
2021/12/26 10:37:52;;;;;;;;;;;8.00;99.90;;;;;;5028675;28;19929;-75
2021/12/26 10:40:23;;;;;;;;;;;8.10;99.90;;;;;;5017570;28;19929;-78
2021/12/26 10:42:52;;;;;;;;;;;8.10;99.90;;;;;;5011572;28;20024;-78
2021/12/26 10:45:21;;;;;;;;;;;8.20;99.90;;;;;;5006746;28;19926;-79
2021/12/26 10:47:51;;;;;;;;;;;8.20;99.90;;;;;;5024149;28;19940;-76
2021/12/26 10:50:20;;;;;;;;;;;8.30;99.90;;;;;;5006203;28;19925;-76
2021/12/26 10:52:57;;;;;;;;;;;8.30;99.90;;;;;;5022482;28;19926;-77
2021/12/26 10:55:29;;;;;;;;;;;8.40;99.90;;;;;;5006385;28;19925;-77
2021/12/26 10:58:19;;;;;;;;;;;8.40;99.90;;;;;;5026289;28;19996;-76
2021/12/26 11:00:49;;;;;;;;;;;8.40;99.90;;;;;;5024184;28;19925;-77
2021/12/26 11:03:22;;;;;;;;;;;8.50;99.90;;;;;;5023847;28;19936;-78
2021/12/26 11:05:51;;;;;;;;;;;8.50;99.90;;;;;;5013357;28;20421;-76
2021/12/26 11:08:28;;;;;;;;;;;8.60;99.90;;;;;;5023616;28;20111;-77
2021/12/26 11:10:57;;;;;;;;;;;8.60;99.90;;;;;;5004222;28;19933;-78
2021/12/26 11:13:24;;;;;;;;;;;8.70;99.90;;;;;;5026962;28;19929;-77
2021/12/26 11:15:56;;;;;;;;;;;8.70;99.90;;;;;;5030344;28;19944;-76
2021/12/26 11:18:24;;;;;;;;;;;8.70;99.90;;;;;;4997981;28;19945;-77
2021/12/26 11:20:53;;;;;;;;;;;8.80;99.90;;;;;;5020885;28;20327;-79
2021/12/26 11:23:23;;;;;;;;;;;8.80;99.90;;;;;;5027875;28;19933;-77
2021/12/26 11:25:55;;;;;;;;;;;8.90;99.90;;;;;;5028606;28;20027;-76
2021/12/26 11:28:28;;;;;;;;;;;8.90;99.90;;;;;;5020285;28;19940;-77
2021/12/26 11:31:01;;;;;;;;;;;8.50;99.90;;;;;;5031579;28;19926;-77
2021/12/26 11:33:29;;;;;;;;;;;9.00;99.90;;;;;;5016332;28;19929;-76
2021/12/26 11:35:57;;;;;;;;;;;9.10;99.90;;;;;;4994984;28;19936;-76
2021/12/26 11:38:25;;;;;;;;;;;9.10;99.90;;;;;;5011498;28;19937;-76
2021/12/26 11:41:31;;;;;;;;;;;9.20;99.90;;;;;;5013720;28;19951;-78
2021/12/26 11:44:37;;;;;;;;;;;9.30;99.90;;;;;;4962381;28;20329;-78
2021/12/26 11:47:40;;;;;;;;;;;9.40;99.90;;;;;;4927431;28;19934;-76
2021/12/26 11:50:45;;;;;;;;;;;9.40;99.90;;;;;;5014903;28;19925;-76
2021/12/26 11:53:43;;;;;;;;;;;9.50;99.90;;;;;;5014680;28;19945;-77
2021/12/26 11:56:41;;;;;;;;;;;9.60;99.90;;;;;;4983879;28;19934;-82
2021/12/26 11:59:09;;;;;;;;;;;9.60;99.90;;;;;;5015040;28;21181;-83
2021/12/26 12:01:42;;;;;;;;;;;9.70;99.90;;;;;;5017887;28;20522;-82
2021/12/26 12:04:11;;;;;;;;;;;9.70;99.90;;;;;;5015569;28;19933;-82
2021/12/26 12:06:39;;;;;;;;;;;9.70;99.90;;;;;;5013009;28;19930;-83
2021/12/26 12:09:25;;;;;;;;;;;9.70;99.90;;;;;;5012009;28;19934;-82
2021/12/26 12:11:56;;;;;;;;;;;9.80;99.90;;;;;;5016910;28;19933;-82
2021/12/26 12:14:59;;;;;;;;;;;9.80;99.90;;;;;;5013085;28;19929;-82
2021/12/26 12:17:35;;;;;;;;;;;9.80;99.90;;;;;;4942701;29;19926;-82
2021/12/26 12:20:10;;;;;;;;;;;9.80;99.90;;;;;;5007202;28;19936;-81
2021/12/26 12:23:20;;;;;;;;;;;9.90;99.90;;;;;;5029180;28;19944;-83
2021/12/26 12:25:53;;;;;;;;;;;10.00;99.90;;;;;;5024559;28;19936;-81
2021/12/26 12:28:26;;;;;;;;;;;9.90;99.90;;;;;;5011644;28;20600;-82
2021/12/26 12:30:59;;;;;;;;;;;9.90;99.90;;;;;;5018780;28;20445;-81
2021/12/26 12:33:28;;;;;;;;;;;9.90;99.90;;;;;;5036059;28;19929;-79
2021/12/26 12:35:58;;;;;;;;;;;10.00;99.90;;;;;;5018087;28;19929;-83
2021/12/26 12:38:26;;;;;;;;;;;10.00;99.90;;;;;;5020070;28;19933;-81
2021/12/26 12:41:30;;;;;;;;;;;9.90;99.90;;;;;;5029432;28;19940;-79
2021/12/26 12:44:04;;;;;;;;;;;10.00;99.90;;;;;;5018526;28;19925;-81
2021/12/26 12:46:31;;;;;;;;;;;10.00;99.90;;;;;;5034819;28;19925;-80
2021/12/26 12:48:59;;;;;;;;;;;10.00;99.90;;;;;;5032709;28;19925;-79
2021/12/26 12:51:27;;;;;;;;;;;10.10;99.90;;;;;;5034046;28;20263;-79
2021/12/26 12:53:56;;;;;;;;;;;10.10;99.90;;;;;;5015590;28;19933;-78
2021/12/26 12:56:34;;;;;;;;;;;10.10;99.90;;;;;;5000588;28;20036;-78
2021/12/26 12:59:18;;;;;;;;;;;10.20;99.90;;;;;;5002618;28;19935;-78
2021/12/26 13:01:53;;;;;;;;;;;10.20;99.90;;;;;;5033020;28;19925;-79
2021/12/26 13:04:30;;;;;;;;;;;10.20;99.90;;;;;;5005828;28;19939;-87
2021/12/26 13:07:02;;;;;;;;;;;10.30;99.90;;;;;;5019504;28;19932;-81
2021/12/26 13:09:31;;;;;;;;;;;10.30;99.90;;;;;;5031729;28;19940;-79
2021/12/26 13:12:00;;;;;;;;;;;10.40;99.90;;;;;;5020999;28;19932;-81
2021/12/26 13:14:37;;;;;;;;;;;10.40;99.90;;;;;;5002196;28;19929;-80
2021/12/26 13:17:05;;;;;;;;;;;10.40;99.90;;;;;;5015667;28;19930;-81
2021/12/26 13:19:35;;;;;;;;;;;10.40;99.90;;;;;;5029196;28;19930;-79
2021/12/26 13:22:06;;;;;;;;;;;10.50;99.90;;;;;;5015467;28;19925;-82
2021/12/26 13:24:40;;;;;;;;;;;10.50;99.90;;;;;;5014826;28;19925;-79
2021/12/26 13:27:08;;;;;;;;;;;10.50;99.90;;;;;;5002995;28;19925;-82
2021/12/26 13:29:47;;;;;;;;;;;10.60;99.90;;;;;;5029665;28;19921;-80
2021/12/26 13:32:16;;;;;;;;;;;10.50;99.90;;;;;;5035572;28;19929;-81
2021/12/26 13:34:51;;;;;;;;;;;10.50;99.90;;;;;;5002621;28;19925;-80
2021/12/26 13:37:21;;;;;;;;;;;10.50;99.90;;;;;;5000394;28;19925;-80
2021/12/26 13:40:10;;;;;;;;;;;10.60;99.90;;;;;;5040788;28;19929;-82
2021/12/26 13:42:49;;;;;;;;;;;10.60;99.90;;;;;;4991178;28;19933;-80
2021/12/26 13:45:27;;;;;;;;;;;10.60;99.90;;;;;;5016668;28;19929;-81
2021/12/26 13:47:59;;;;;;;;;;;10.60;99.90;;;;;;5019703;28;19940;-80
2021/12/26 13:50:27;;;;;;;;;;;10.60;99.90;;;;;;5018171;28;20299;-81
2021/12/26 13:53:20;;;;;;;;;;;10.60;99.90;;;;;;5018991;28;19925;-79
2021/12/26 13:55:59;;;;;;;;;;;10.50;99.90;;;;;;5031255;28;19934;-81
2021/12/26 13:58:49;;;;;;;;;;;10.50;99.90;;;;;;5022266;28;19940;-79
2021/12/26 14:01:19;;;;;;;;;;;10.50;99.90;;;;;;5013751;28;19941;-79
2021/12/26 14:03:47;;;;;;;;;;;10.50;99.90;;;;;;5018506;28;19948;-81
2021/12/26 14:09:35;;;;;;;;;;;10.40;99.90;;;;;;5032977;28;19929;-80
2021/12/26 14:12:06;;;;;;;;;;;10.50;99.90;;;;;;5022659;28;19932;-79
2021/12/26 14:15:48;;;;;;;;;;;10.50;99.90;;;;;;5015564;28;19940;-79
2021/12/26 14:18:42;;;;;;;;;;;10.50;99.90;;;;;;5000701;28;19944;-80
2021/12/26 14:21:43;;;;;;;;;;;10.50;99.90;;;;;;5034009;28;19932;-80
2021/12/26 14:24:11;;;;;;;;;;;10.50;99.90;;;;;;5032642;28;19925;-80
2021/12/26 14:26:43;;;;;;;;;;;10.40;99.90;;;;;;5033453;28;19934;-79
2021/12/26 14:29:14;;;;;;;;;;;10.40;99.90;;;;;;5018151;28;19937;-79
2021/12/26 14:32:07;;;;;;;;;;;10.40;99.90;;;;;;5036155;28;19933;-79
2021/12/26 14:34:52;;;;;;;;;;;10.30;99.90;;;;;;5006871;28;19940;-79
2021/12/26 14:38:24;;;;;;;;;;;10.30;99.90;;;;;;5023751;28;19922;-81
2021/12/26 14:41:38;;;;;;;;;;;10.20;99.90;;;;;;5016251;28;19925;-81
2021/12/26 14:44:51;;;;;;;;;;;10.20;99.90;;;;;;5004741;28;21016;-81
2021/12/26 14:47:25;;;;;;;;;;;10.10;99.90;;;;;;5016929;28;19933;-83
2021/12/26 14:50:15;;;;;;;;;;;10.20;99.90;;;;;;5021499;28;19936;-85
2021/12/26 14:52:46;;;;;;;;;;;10.30;99.90;;;;;;5017347;28;19932;-87
2021/12/26 14:55:20;;;;;;;;;;;11.40;99.90;;;;;;5000391;28;19944;-84
2021/12/26 14:57:51;;;;;;;;;;;8.30;99.90;;;;;;5034406;28;19925;-80
2021/12/26 15:00:23;;;;;;;;;;;10.30;99.90;;;;;;5004400;28;20403;-88
2021/12/26 15:02:53;;;;;;;;;;;10.00;99.90;;;;;;5003517;28;19929;-81
2021/12/26 15:05:30;;;;;;;;;;;10.00;99.90;;;;;;5019858;28;19933;-80
2021/12/26 15:08:01;;;;;;;;;;;10.00;99.90;;;;;;5040972;28;20290;-83
2021/12/26 15:10:34;;;;;;;;;;;10.00;99.90;;;;;;5013180;28;19933;-84
2021/12/26 15:13:10;;;;;;;;;;;9.80;99.90;;;;;;5023093;28;19929;-79
2021/12/26 15:15:42;;;;;;;;;;;9.80;99.90;;;;;;5020642;28;19940;-81
2021/12/26 15:18:17;;;;;;;;;;;9.90;99.90;;;;;;5022177;28;19929;-79